sensor_id;sensor_type;location;lat;lon;timestamp;pressure;altitude;pressure_sealevel;temperature;humidity
32492;BME280;20605;49.742;18.802;2022-09-17T00:01:23;96851.67;;;10.26;100.00
32492;BME280;20605;49.742;18.802;2022-09-17T00:03:52;96849.59;;;10.24;100.00
32492;BME280;20605;49.742;18.802;2022-09-17T00:06:21;96848.51;;;10.20;100.00
32492;BME280;20605;49.742;18.802;2022-09-17T00:08:49;96843.87;;;10.16;100.00
32492;BME280;20605;49.742;18.802;2022-09-17T00:11:19;96836.20;;;10.13;100.00
32492;BME280;20605;49.742;18.802;2022-09-17T00:13:49;96838.27;;;10.15;100.00
32492;BME280;20605;49.742;18.802;2022-09-17T00:16:29;96833.98;;;10.14;100.00
32492;BME280;20605;49.742;18.802;2022-09-17T00:19:00;96842.38;;;10.10;100.00
32492;BME280;20605;49.742;18.802;2022-09-17T00:21:29;96831.34;;;10.05;100.00
32492;BME280;20605;49.742;18.802;2022-09-17T00:23:58;96843.25;;;10.01;100.00
32492;BME280;20605;49.742;18.802;2022-09-17T00:26:27;96839.05;;;9.88;100.00
32492;BME280;20605;49.742;18.802;2022-09-17T00:28:56;96844.00;;;9.84;100.00
32492;BME280;20605;49.742;18.802;2022-09-17T00:31:24;96852.06;;;9.78;100.00
32492;BME280;20605;49.742;18.802;2022-09-17T00:33:52;96844.28;;;9.68;100.00
32492;BME280;20605;49.742;18.802;2022-09-17T00:36:20;96842.01;;;9.60;100.00
32492;BME280;20605;49.742;18.802;2022-09-17T00:38:53;96843.89;;;9.57;100.00
32492;BME280;20605;49.742;18.802;2022-09-17T00:41:20;96846.23;;;9.53;100.00
32492;BME280;20605;49.742;18.802;2022-09-17T00:43:51;96842.08;;;9.48;100.00
32492;BME280;20605;49.742;18.802;2022-09-17T00:46:35;96844.28;;;9.47;100.00
32492;BME280;20605;49.742;18.802;2022-09-17T00:49:28;96843.50;;;9.45;100.00
32492;BME280;20605;49.742;18.802;2022-09-17T00:52:00;96842.20;;;9.45;100.00
32492;BME280;20605;49.742;18.802;2022-09-17T00:54:29;96840.91;;;9.45;100.00
32492;BME280;20605;49.742;18.802;2022-09-17T00:56:57;96832.20;;;9.46;100.00
32492;BME280;20605;49.742;18.802;2022-09-17T00:59:25;96839.93;;;9.48;100.00
32492;BME280;20605;49.742;18.802;2022-09-17T01:01:53;96833.05;;;9.47;100.00
32492;BME280;20605;49.742;18.802;2022-09-17T01:04:23;96836.88;;;9.48;100.00
32492;BME280;20605;49.742;18.802;2022-09-17T01:07:03;96833.56;;;9.45;100.00
32492;BME280;20605;49.742;18.802;2022-09-17T01:09:53;96827.72;;;9.40;100.00
32492;BME280;20605;49.742;18.802;2022-09-17T01:24:19;96821.35;;;9.37;100.00
32492;BME280;20605;49.742;18.802;2022-09-17T01:27:15;96826.09;;;9.37;100.00
32492;BME280;20605;49.742;18.802;2022-09-17T01:30:12;96828.95;;;9.31;100.00
32492;BME280;20605;49.742;18.802;2022-09-17T01:33:16;96828.03;;;9.22;100.00
32492;BME280;20605;49.742;18.802;2022-09-17T01:38:43;96838.13;;;9.09;100.00
32492;BME280;20605;49.742;18.802;2022-09-17T01:51:27;96852.20;;;9.04;100.00
32492;BME280;20605;49.742;18.802;2022-09-17T01:53:28;96855.58;;;9.06;100.00
32492;BME280;20605;49.742;18.802;2022-09-17T01:55:56;96852.14;;;9.05;100.00
32492;BME280;20605;49.742;18.802;2022-09-17T01:58:30;96850.00;;;9.05;100.00
32492;BME280;20605;49.742;18.802;2022-09-17T02:01:04;96854.86;;;9.02;100.00
32492;BME280;20605;49.742;18.802;2022-09-17T02:03:35;96849.34;;;9.00;100.00
32492;BME280;20605;49.742;18.802;2022-09-17T02:06:11;96852.39;;;8.99;100.00
32492;BME280;20605;49.742;18.802;2022-09-17T02:09:05;96845.95;;;8.98;100.00
32492;BME280;20605;49.742;18.802;2022-09-17T02:11:51;96854.92;;;9.01;100.00
32492;BME280;20605;49.742;18.802;2022-09-17T02:23:20;96878.27;;;8.91;100.00
32492;BME280;20605;49.742;18.802;2022-09-17T02:32:08;96868.48;;;8.97;100.00
32492;BME280;20605;49.742;18.802;2022-09-17T02:34:35;96867.06;;;9.00;100.00
32492;BME280;20605;49.742;18.802;2022-09-17T02:37:03;96864.92;;;9.00;100.00
32492;BME280;20605;49.742;18.802;2022-09-17T02:39:31;96863.23;;;8.99;100.00
32492;BME280;20605;49.742;18.802;2022-09-17T02:45:11;96856.08;;;8.94;100.00
32492;BME280;20605;49.742;18.802;2022-09-17T02:48:01;96829.42;;;8.78;100.00
32492;BME280;20605;49.742;18.802;2022-09-17T02:56:55;96838.06;;;8.79;100.00
32492;BME280;20605;49.742;18.802;2022-09-17T02:59:40;96837.22;;;8.78;100.00
32492;BME280;20605;49.742;18.802;2022-09-17T03:02:17;96829.48;;;8.77;100.00
32492;BME280;20605;49.742;18.802;2022-09-17T03:04:48;96830.45;;;8.74;100.00
32492;BME280;20605;49.742;18.802;2022-09-17T03:07:16;96826.11;;;8.75;100.00
32492;BME280;20605;49.742;18.802;2022-09-17T03:09:44;96825.72;;;8.74;100.00
32492;BME280;20605;49.742;18.802;2022-09-17T03:12:12;96819.05;;;8.78;100.00
32492;BME280;20605;49.742;18.802;2022-09-17T03:14:39;96814.57;;;8.82;100.00
32492;BME280;20605;49.742;18.802;2022-09-17T03:17:07;96816.66;;;8.84;100.00
32492;BME280;20605;49.742;18.802;2022-09-17T03:19:34;96811.34;;;8.87;100.00
32492;BME280;20605;49.742;18.802;2022-09-17T03:22:10;96812.63;;;8.87;100.00
32492;BME280;20605;49.742;18.802;2022-09-17T03:24:52;96814.84;;;8.86;100.00
32492;BME280;20605;49.742;18.802;2022-09-17T03:27:33;96796.35;;;8.62;100.00
32492;BME280;20605;49.742;18.802;2022-09-17T03:35:55;96796.20;;;8.55;100.00
32492;BME280;20605;49.742;18.802;2022-09-17T03:38:27;96796.20;;;8.55;100.00
32492;BME280;20605;49.742;18.802;2022-09-17T03:40:58;96792.70;;;8.56;100.00
32492;BME280;20605;49.742;18.802;2022-09-17T03:43:30;96770.10;;;8.47;100.00
32492;BME280;20605;49.742;18.802;2022-09-17T03:45:58;96779.48;;;8.40;100.00
32492;BME280;20605;49.742;18.802;2022-09-17T03:48:25;96779.48;;;8.40;100.00
32492;BME280;20605;49.742;18.802;2022-09-17T03:50:54;96775.14;;;8.29;100.00
32492;BME280;20605;49.742;18.802;2022-09-17T03:53:21;96772.05;;;8.19;100.00
32492;BME280;20605;49.742;18.802;2022-09-17T03:55:47;96772.73;;;8.12;100.00
32492;BME280;20605;49.742;18.802;2022-09-17T03:58:14;96774.61;;;8.09;100.00
32492;BME280;20605;49.742;18.802;2022-09-17T04:00:42;96760.36;;;7.97;100.00
32492;BME280;20605;49.742;18.802;2022-09-17T04:03:09;96775.63;;;7.93;100.00
32492;BME280;20605;49.742;18.802;2022-09-17T04:05:36;96766.09;;;7.72;100.00
32492;BME280;20605;49.742;18.802;2022-09-17T04:08:04;96759.00;;;7.65;100.00
32492;BME280;20605;49.742;18.802;2022-09-17T04:10:31;96781.20;;;7.72;100.00
32492;BME280;20605;49.742;18.802;2022-09-17T04:12:58;96781.25;;;7.71;100.00
32492;BME280;20605;49.742;18.802;2022-09-17T04:15:24;96781.25;;;7.71;100.00
32492;BME280;20605;49.742;18.802;2022-09-17T04:17:56;96777.92;;;7.67;100.00
32492;BME280;20605;49.742;18.802;2022-09-17T04:20:24;96763.27;;;7.55;100.00
32492;BME280;20605;49.742;18.802;2022-09-17T04:22:53;96763.27;;;7.55;100.00
32492;BME280;20605;49.742;18.802;2022-09-17T04:25:19;96785.81;;;7.64;100.00
32492;BME280;20605;49.742;18.802;2022-09-17T04:27:46;96793.48;;;7.67;100.00
32492;BME280;20605;49.742;18.802;2022-09-17T04:30:14;96786.94;;;7.69;100.00
32492;BME280;20605;49.742;18.802;2022-09-17T04:32:45;96789.03;;;7.71;100.00
32492;BME280;20605;49.742;18.802;2022-09-17T04:35:12;96788.12;;;7.72;100.00
32492;BME280;20605;49.742;18.802;2022-09-17T04:37:39;96790.83;;;7.69;100.00
32492;BME280;20605;49.742;18.802;2022-09-17T04:40:07;96785.75;;;7.66;100.00
32492;BME280;20605;49.742;18.802;2022-09-17T04:42:34;96778.83;;;7.66;100.00
32492;BME280;20605;49.742;18.802;2022-09-17T04:45:01;96782.20;;;7.68;100.00
32492;BME280;20605;49.742;18.802;2022-09-17T04:47:28;96774.20;;;7.74;100.00
32492;BME280;20605;49.742;18.802;2022-09-17T04:49:54;96770.55;;;7.80;100.00
32492;BME280;20605;49.742;18.802;2022-09-17T04:52:21;96770.63;;;7.89;100.00
32492;BME280;20605;49.742;18.802;2022-09-17T04:54:48;96782.64;;;8.25;100.00
32492;BME280;20605;49.742;18.802;2022-09-17T04:57:15;96782.64;;;8.25;100.00
32492;BME280;20605;49.742;18.802;2022-09-17T04:59:41;96773.05;;;8.27;100.00
32492;BME280;20605;49.742;18.802;2022-09-17T05:02:08;96784.89;;;8.45;100.00
32492;BME280;20605;49.742;18.802;2022-09-17T05:04:34;96784.98;;;8.54;100.00
32492;BME280;20605;49.742;18.802;2022-09-17T05:07:01;96780.92;;;8.69;100.00
32492;BME280;20605;49.742;18.802;2022-09-17T05:09:28;96780.92;;;8.69;100.00
32492;BME280;20605;49.742;18.802;2022-09-17T05:11:55;96799.66;;;8.87;100.00
32492;BME280;20605;49.742;18.802;2022-09-17T05:14:22;96800.64;;;8.95;100.00
32492;BME280;20605;49.742;18.802;2022-09-17T05:16:48;96802.46;;;9.03;100.00
32492;BME280;20605;49.742;18.802;2022-09-17T05:19:15;96803.05;;;9.09;100.00
32492;BME280;20605;49.742;18.802;2022-09-17T05:21:42;96800.97;;;9.07;100.00
32492;BME280;20605;49.742;18.802;2022-09-17T05:24:09;96794.03;;;9.08;100.00
32492;BME280;20605;49.742;18.802;2022-09-17T05:26:35;96798.70;;;9.10;100.00
32492;BME280;20605;49.742;18.802;2022-09-17T05:29:02;96808.09;;;9.12;100.00
32492;BME280;20605;49.742;18.802;2022-09-17T05:31:29;96818.02;;;9.13;100.00
32492;BME280;20605;49.742;18.802;2022-09-17T05:33:57;96820.50;;;9.16;100.00
32492;BME280;20605;49.742;18.802;2022-09-17T05:36:24;96817.84;;;9.28;100.00
32492;BME280;20605;49.742;18.802;2022-09-17T05:38:50;96821.73;;;9.58;100.00
32492;BME280;20605;49.742;18.802;2022-09-17T05:41:17;96823.08;;;9.77;100.00
32492;BME280;20605;49.742;18.802;2022-09-17T05:43:44;96816.80;;;9.91;100.00
32492;BME280;20605;49.742;18.802;2022-09-17T05:46:11;96814.68;;;10.20;100.00
32492;BME280;20605;49.742;18.802;2022-09-17T05:48:37;96824.17;;;10.39;100.00
32492;BME280;20605;49.742;18.802;2022-09-17T05:51:04;96820.67;;;10.58;100.00
32492;BME280;20605;49.742;18.802;2022-09-17T05:53:31;96823.19;;;10.87;100.00
32492;BME280;20605;49.742;18.802;2022-09-17T05:55:58;96817.33;;;11.18;100.00
32492;BME280;20605;49.742;18.802;2022-09-17T05:58:25;96808.89;;;11.38;100.00
32492;BME280;20605;49.742;18.802;2022-09-17T06:00:52;96801.66;;;11.61;100.00
32492;BME280;20605;49.742;18.802;2022-09-17T06:03:19;96792.55;;;11.76;100.00
32492;BME280;20605;49.742;18.802;2022-09-17T06:05:58;96787.74;;;11.78;100.00
32492;BME280;20605;49.742;18.802;2022-09-17T06:08:27;96783.42;;;11.85;100.00
32492;BME280;20605;49.742;18.802;2022-09-17T06:10:54;96778.20;;;11.85;100.00
32492;BME280;20605;49.742;18.802;2022-09-17T06:13:21;96767.14;;;11.89;100.00
32492;BME280;20605;49.742;18.802;2022-09-17T06:15:54;96765.59;;;11.93;100.00
32492;BME280;20605;49.742;18.802;2022-09-17T06:18:20;96781.22;;;12.02;100.00
32492;BME280;20605;49.742;18.802;2022-09-17T06:21:02;96788.86;;;12.14;100.00
32492;BME280;20605;49.742;18.802;2022-09-17T06:23:31;96786.64;;;12.30;100.00
32492;BME280;20605;49.742;18.802;2022-09-17T06:26:00;96782.47;;;12.51;100.00
32492;BME280;20605;49.742;18.802;2022-09-17T06:28:32;96793.54;;;12.63;100.00
32492;BME280;20605;49.742;18.802;2022-09-17T06:31:00;96805.63;;;12.72;100.00
32492;BME280;20605;49.742;18.802;2022-09-17T06:33:31;96812.63;;;12.72;100.00
32492;BME280;20605;49.742;18.802;2022-09-17T06:36:06;96806.52;;;12.64;100.00
32492;BME280;20605;49.742;18.802;2022-09-17T06:38:33;96805.17;;;12.57;100.00
32492;BME280;20605;49.742;18.802;2022-09-17T06:41:01;96807.78;;;12.57;100.00
32492;BME280;20605;49.742;18.802;2022-09-17T06:43:29;96802.81;;;12.68;100.00
32492;BME280;20605;49.742;18.802;2022-09-17T06:46:04;96797.91;;;12.78;100.00
32492;BME280;20605;49.742;18.802;2022-09-17T06:48:33;96790.02;;;12.87;100.00
32492;BME280;20605;49.742;18.802;2022-09-17T06:51:07;96787.07;;;13.07;100.00
32492;BME280;20605;49.742;18.802;2022-09-17T06:53:37;96789.96;;;13.25;100.00
32492;BME280;20605;49.742;18.802;2022-09-17T06:56:05;96782.77;;;13.29;100.00
32492;BME280;20605;49.742;18.802;2022-09-17T06:58:38;96786.82;;;13.42;100.00
32492;BME280;20605;49.742;18.802;2022-09-17T07:03:54;96798.16;;;13.63;100.00
32492;BME280;20605;49.742;18.802;2022-09-17T07:06:21;96803.79;;;13.86;100.00
32492;BME280;20605;49.742;18.802;2022-09-17T07:08:48;96806.69;;;14.02;100.00
32492;BME280;20605;49.742;18.802;2022-09-17T07:11:14;96812.11;;;14.07;100.00
32492;BME280;20605;49.742;18.802;2022-09-17T07:13:41;96819.12;;;14.13;100.00
32492;BME280;20605;49.742;18.802;2022-09-17T07:16:09;96827.54;;;14.25;100.00
32492;BME280;20605;49.742;18.802;2022-09-17T07:18:35;96837.55;;;14.26;100.00
32492;BME280;20605;49.742;18.802;2022-09-17T07:21:05;96828.44;;;14.31;100.00
32492;BME280;20605;49.742;18.802;2022-09-17T07:23:36;96827.03;;;14.33;100.00
32492;BME280;20605;49.742;18.802;2022-09-17T07:26:06;96830.86;;;14.34;100.00
32492;BME280;20605;49.742;18.802;2022-09-17T07:28:39;96835.45;;;14.31;100.00
32492;BME280;20605;49.742;18.802;2022-09-17T07:31:09;96834.36;;;14.28;100.00
32492;BME280;20605;49.742;18.802;2022-09-17T07:33:40;96833.34;;;14.23;100.00
32492;BME280;20605;49.742;18.802;2022-09-17T07:36:09;96833.81;;;14.23;100.00
32492;BME280;20605;49.742;18.802;2022-09-17T07:38:37;96823.42;;;14.14;100.00
32492;BME280;20605;49.742;18.802;2022-09-17T07:41:08;96829.97;;;14.07;100.00
32492;BME280;20605;49.742;18.802;2022-09-17T07:43:37;96837.64;;;14.03;100.00
32492;BME280;20605;49.742;18.802;2022-09-17T07:46:05;96831.56;;;14.02;100.00
32492;BME280;20605;49.742;18.802;2022-09-17T07:48:34;96832.68;;;13.91;100.00
32492;BME280;20605;49.742;18.802;2022-09-17T07:51:01;96836.61;;;13.91;100.00
32492;BME280;20605;49.742;18.802;2022-09-17T07:53:31;96829.69;;;13.90;100.00
32492;BME280;20605;49.742;18.802;2022-09-17T07:56:00;96819.50;;;13.86;100.00
32492;BME280;20605;49.742;18.802;2022-09-17T07:58:31;96824.53;;;13.75;100.00
32492;BME280;20605;49.742;18.802;2022-09-17T08:01:05;96828.18;;;13.79;100.00
32492;BME280;20605;49.742;18.802;2022-09-17T08:03:34;96826.80;;;13.95;100.00
32492;BME280;20605;49.742;18.802;2022-09-17T08:06:08;96828.11;;;14.09;100.00
32492;BME280;20605;49.742;18.802;2022-09-17T08:08:39;96827.27;;;14.23;100.00
32492;BME280;20605;49.742;18.802;2022-09-17T08:11:08;96824.03;;;14.39;100.00
32492;BME280;20605;49.742;18.802;2022-09-17T08:13:42;96820.53;;;14.74;100.00
32492;BME280;20605;49.742;18.802;2022-09-17T08:16:15;96817.22;;;15.12;100.00
32492;BME280;20605;49.742;18.802;2022-09-17T08:18:42;96813.25;;;15.19;100.00
32492;BME280;20605;49.742;18.802;2022-09-17T08:21:12;96822.40;;;15.26;100.00
32492;BME280;20605;49.742;18.802;2022-09-17T08:23:43;96828.35;;;15.35;100.00
32492;BME280;20605;49.742;18.802;2022-09-17T08:26:17;96829.83;;;15.39;100.00
32492;BME280;20605;49.742;18.802;2022-09-17T08:28:48;96831.20;;;15.77;100.00
32492;BME280;20605;49.742;18.802;2022-09-17T08:31:17;96821.11;;;16.22;100.00
32492;BME280;20605;49.742;18.802;2022-09-17T08:33:51;96822.97;;;16.63;100.00
32492;BME280;20605;49.742;18.802;2022-09-17T08:36:17;96829.32;;;17.33;100.00
32492;BME280;20605;49.742;18.802;2022-09-17T08:38:44;96832.29;;;17.98;100.00
32492;BME280;20605;49.742;18.802;2022-09-17T08:41:39;96818.50;;;18.45;100.00
32492;BME280;20605;49.742;18.802;2022-09-17T08:44:10;96816.23;;;18.35;100.00
32492;BME280;20605;49.742;18.802;2022-09-17T08:46:48;96807.97;;;17.89;97.76
32492;BME280;20605;49.742;18.802;2022-09-17T08:49:31;96811.34;;;17.61;97.13
32492;BME280;20605;49.742;18.802;2022-09-17T08:52:20;96808.42;;;17.42;98.35
32492;BME280;20605;49.742;18.802;2022-09-17T08:54:55;96797.64;;;17.40;97.94
32492;BME280;20605;49.742;18.802;2022-09-17T09:00:21;96786.66;;;17.51;98.64
32492;BME280;20605;49.742;18.802;2022-09-17T09:05:49;96793.09;;;17.07;97.34
32492;BME280;20605;49.742;18.802;2022-09-17T09:11:10;96826.18;;;16.74;96.72
32492;BME280;20605;49.742;18.802;2022-09-17T09:13:48;96828.70;;;16.45;96.30
32492;BME280;20605;49.742;18.802;2022-09-17T09:16:18;96823.20;;;16.29;96.17
32492;BME280;20605;49.742;18.802;2022-09-17T09:18:59;96826.05;;;16.14;97.03
32492;BME280;20605;49.742;18.802;2022-09-17T09:24:20;96828.06;;;15.97;97.17
32492;BME280;20605;49.742;18.802;2022-09-17T09:30:04;96824.95;;;15.98;95.64
32492;BME280;20605;49.742;18.802;2022-09-17T09:35:23;96834.57;;;15.92;96.53
32492;BME280;20605;49.742;18.802;2022-09-17T09:41:10;96841.66;;;15.84;97.17
32492;BME280;20605;49.742;18.802;2022-09-17T09:43:42;96843.07;;;15.83;96.16
32492;BME280;20605;49.742;18.802;2022-09-17T09:52:47;96845.52;;;16.42;95.52
32492;BME280;20605;49.742;18.802;2022-09-17T10:00:46;96826.56;;;17.05;95.43
32492;BME280;20605;49.742;18.802;2022-09-17T10:03:26;96828.23;;;17.29;95.25
32492;BME280;20605;49.742;18.802;2022-09-17T10:11:27;96833.02;;;17.30;93.76
32492;BME280;20605;49.742;18.802;2022-09-17T10:14:33;96839.59;;;17.30;94.01
32492;BME280;20605;49.742;18.802;2022-09-17T10:17:27;96835.27;;;17.23;93.23
32492;BME280;20605;49.742;18.802;2022-09-17T10:20:17;96847.30;;;17.15;93.11
32492;BME280;20605;49.742;18.802;2022-09-17T10:25:55;96850.66;;;17.17;93.67
32492;BME280;20605;49.742;18.802;2022-09-17T10:42:19;96851.89;;;16.63;92.40
32492;BME280;20605;49.742;18.802;2022-09-17T10:48:26;96865.58;;;16.56;93.42
32492;BME280;20605;49.742;18.802;2022-09-17T10:58:10;96851.75;;;16.16;93.49
32492;BME280;20605;49.742;18.802;2022-09-17T11:01:14;96854.59;;;16.13;94.06
32492;BME280;20605;49.742;18.802;2022-09-17T11:07:07;96844.08;;;16.00;93.91
32492;BME280;20605;49.742;18.802;2022-09-17T11:20:01;96867.58;;;15.44;94.50
32492;BME280;20605;49.742;18.802;2022-09-17T11:34:37;96848.58;;;14.86;97.20
32492;BME280;20605;49.742;18.802;2022-09-17T11:46:21;96839.23;;;14.82;97.82
32492;BME280;20605;49.742;18.802;2022-09-17T11:52:32;96835.95;;;14.86;98.61
32492;BME280;20605;49.742;18.802;2022-09-17T11:55:17;96829.98;;;15.04;98.28
32492;BME280;20605;49.742;18.802;2022-09-17T11:58:10;96831.71;;;15.17;98.98
32492;BME280;20605;49.742;18.802;2022-09-17T12:00:47;96832.56;;;15.38;98.85
32492;BME280;20605;49.742;18.802;2022-09-17T12:03:40;96823.50;;;15.49;98.35
32492;BME280;20605;49.742;18.802;2022-09-17T12:08:58;96802.21;;;15.66;98.08
32492;BME280;20605;49.742;18.802;2022-09-17T12:15:11;96793.70;;;15.88;97.40
32492;BME280;20605;49.742;18.802;2022-09-17T12:17:48;96786.98;;;15.84;97.80
32492;BME280;20605;49.742;18.802;2022-09-17T12:20:37;96785.52;;;15.92;98.17
32492;BME280;20605;49.742;18.802;2022-09-17T12:23:15;96782.08;;;16.10;98.34
32492;BME280;20605;49.742;18.802;2022-09-17T12:35:05;96768.39;;;16.85;96.41
32492;BME280;20605;49.742;18.802;2022-09-17T12:44:48;96753.97;;;17.02;96.18
32492;BME280;20605;49.742;18.802;2022-09-17T13:00:13;96741.76;;;16.66;94.93
32492;BME280;20605;49.742;18.802;2022-09-17T13:15:29;96743.94;;;17.07;94.35
32492;BME280;20605;49.742;18.802;2022-09-17T13:18:46;96740.13;;;17.11;93.27
32492;BME280;20605;49.742;18.802;2022-09-17T13:24:17;96759.30;;;16.84;93.70
32492;BME280;20605;49.742;18.802;2022-09-17T13:27:18;96772.02;;;16.72;93.49
32492;BME280;20605;49.742;18.802;2022-09-17T13:29:58;96764.15;;;16.59;93.69
32492;BME280;20605;49.742;18.802;2022-09-17T13:38:18;96741.16;;;16.50;94.96
32492;BME280;20605;49.742;18.802;2022-09-17T13:43:55;96731.56;;;16.43;95.15
32492;BME280;20605;49.742;18.802;2022-09-17T13:46:40;96723.81;;;16.47;95.30
32492;BME280;20605;49.742;18.802;2022-09-17T13:49:21;96726.16;;;16.39;95.07
32492;BME280;20605;49.742;18.802;2022-09-17T13:52:06;96719.99;;;16.27;94.64
32492;BME280;20605;49.742;18.802;2022-09-17T13:54:40;96715.69;;;16.26;95.48
32492;BME280;20605;49.742;18.802;2022-09-17T13:59:58;96713.50;;;16.20;95.83
32492;BME280;20605;49.742;18.802;2022-09-17T14:02:43;96709.92;;;16.21;96.48
32492;BME280;20605;49.742;18.802;2022-09-17T14:05:24;96706.45;;;16.21;96.39
32492;BME280;20605;49.742;18.802;2022-09-17T14:08:12;96709.05;;;16.15;96.51
32492;BME280;20605;49.742;18.802;2022-09-17T14:10:44;96710.91;;;16.08;96.54
32492;BME280;20605;49.742;18.802;2022-09-17T14:19:21;96730.02;;;15.66;95.97
32492;BME280;20605;49.742;18.802;2022-09-17T14:24:55;96749.99;;;15.23;97.24
32492;BME280;20605;49.742;18.802;2022-09-17T14:30:42;96746.70;;;15.07;98.25
32492;BME280;20605;49.742;18.802;2022-09-17T14:38:36;96744.81;;;14.69;99.34
32492;BME280;20605;49.742;18.802;2022-09-17T14:41:17;96749.81;;;14.60;100.00
32492;BME280;20605;49.742;18.802;2022-09-17T14:44:11;96743.50;;;14.43;100.00
32492;BME280;20605;49.742;18.802;2022-09-17T14:46:45;96745.64;;;14.36;100.00
32492;BME280;20605;49.742;18.802;2022-09-17T14:49:32;96730.11;;;14.33;100.00
32492;BME280;20605;49.742;18.802;2022-09-17T14:52:27;96731.80;;;14.34;100.00
32492;BME280;20605;49.742;18.802;2022-09-17T14:58:21;96715.66;;;14.27;100.00
32492;BME280;20605;49.742;18.802;2022-09-17T15:10:30;96698.02;;;14.36;100.00
32492;BME280;20605;49.742;18.802;2022-09-17T15:12:57;96708.55;;;14.29;100.00
32492;BME280;20605;49.742;18.802;2022-09-17T15:15:25;96716.42;;;14.22;100.00
32492;BME280;20605;49.742;18.802;2022-09-17T15:17:53;96733.92;;;14.15;100.00
32492;BME280;20605;49.742;18.802;2022-09-17T15:20:22;96737.31;;;14.02;100.00
32492;BME280;20605;49.742;18.802;2022-09-17T15:23:09;96741.80;;;13.93;100.00
32492;BME280;20605;49.742;18.802;2022-09-17T15:25:38;96752.19;;;13.88;100.00
32492;BME280;20605;49.742;18.802;2022-09-17T15:28:17;96751.72;;;13.81;100.00
32492;BME280;20605;49.742;18.802;2022-09-17T15:30:42;96742.56;;;13.74;100.00
32492;BME280;20605;49.742;18.802;2022-09-17T15:33:11;96741.72;;;13.66;100.00
32492;BME280;20605;49.742;18.802;2022-09-17T15:35:38;96739.66;;;13.64;100.00
32492;BME280;20605;49.742;18.802;2022-09-17T15:38:26;96742.19;;;13.59;100.00
32492;BME280;20605;49.742;18.802;2022-09-17T15:40:55;96739.84;;;13.54;100.00
32492;BME280;20605;49.742;18.802;2022-09-17T15:43:31;96742.64;;;13.51;100.00
32492;BME280;20605;49.742;18.802;2022-09-17T15:49:02;96734.23;;;13.46;100.00
32492;BME280;20605;49.742;18.802;2022-09-17T15:51:34;96740.30;;;13.47;100.00
32492;BME280;20605;49.742;18.802;2022-09-17T15:54:03;96742.91;;;13.39;100.00
32492;BME280;20605;49.742;18.802;2022-09-17T15:56:36;96738.98;;;13.32;100.00
32492;BME280;20605;49.742;18.802;2022-09-17T15:59:20;96733.45;;;13.23;100.00
32492;BME280;20605;49.742;18.802;2022-09-17T16:01:51;96731.95;;;13.19;100.00
32492;BME280;20605;49.742;18.802;2022-09-17T16:04:32;96737.97;;;13.12;100.00
32492;BME280;20605;49.742;18.802;2022-09-17T16:09:46;96737.95;;;13.05;100.00
32492;BME280;20605;49.742;18.802;2022-09-17T16:12:20;96738.05;;;13.03;100.00
32492;BME280;20605;49.742;18.802;2022-09-17T16:14:50;96745.05;;;12.96;100.00
32492;BME280;20605;49.742;18.802;2022-09-17T16:17:53;96751.86;;;12.91;100.00
32492;BME280;20605;49.742;18.802;2022-09-17T16:20:22;96757.52;;;12.84;100.00
32492;BME280;20605;49.742;18.802;2022-09-17T16:22:51;96754.87;;;12.77;100.00
32492;BME280;20605;49.742;18.802;2022-09-17T16:25:22;96756.71;;;12.67;100.00
32492;BME280;20605;49.742;18.802;2022-09-17T16:27:51;96757.34;;;12.64;100.00
32492;BME280;20605;49.742;18.802;2022-09-17T16:30:22;96746.14;;;12.62;100.00
32492;BME280;20605;49.742;18.802;2022-09-17T16:32:49;96751.33;;;12.55;100.00
32492;BME280;20605;49.742;18.802;2022-09-17T16:35:19;96750.08;;;12.46;100.00
32492;BME280;20605;49.742;18.802;2022-09-17T16:37:51;96751.26;;;12.40;100.00
32492;BME280;20605;49.742;18.802;2022-09-17T16:40:20;96762.25;;;12.38;100.00
32492;BME280;20605;49.742;18.802;2022-09-17T16:42:48;96754.50;;;12.37;100.00
32492;BME280;20605;49.742;18.802;2022-09-17T16:45:15;96738.08;;;12.35;100.00
32492;BME280;20605;49.742;18.802;2022-09-17T16:47:42;96735.34;;;12.29;100.00
32492;BME280;20605;49.742;18.802;2022-09-17T16:50:11;96736.36;;;12.27;100.00
32492;BME280;20605;49.742;18.802;2022-09-17T16:52:39;96734.72;;;12.17;100.00
32492;BME280;20605;49.742;18.802;2022-09-17T16:55:06;96734.50;;;12.13;100.00
32492;BME280;20605;49.742;18.802;2022-09-17T16:57:33;96730.59;;;12.13;100.00
32492;BME280;20605;49.742;18.802;2022-09-17T17:00:00;96727.43;;;11.99;100.00
32492;BME280;20605;49.742;18.802;2022-09-17T17:02:28;96725.91;;;11.95;100.00
32492;BME280;20605;49.742;18.802;2022-09-17T17:04:55;96731.67;;;11.93;100.00
32492;BME280;20605;49.742;18.802;2022-09-17T17:07:22;96730.37;;;11.93;100.00
32492;BME280;20605;49.742;18.802;2022-09-17T17:09:49;96732.05;;;11.94;100.00
32492;BME280;20605;49.742;18.802;2022-09-17T17:12:15;96729.77;;;11.88;100.00
32492;BME280;20605;49.742;18.802;2022-09-17T17:14:42;96727.71;;;11.86;100.00
32492;BME280;20605;49.742;18.802;2022-09-17T17:17:11;96724.26;;;11.86;100.00
32492;BME280;20605;49.742;18.802;2022-09-17T17:19:37;96722.73;;;11.82;100.00
32492;BME280;20605;49.742;18.802;2022-09-17T17:22:05;96726.73;;;11.80;100.00
32492;BME280;20605;49.742;18.802;2022-09-17T17:24:33;96728.03;;;11.80;100.00
32492;BME280;20605;49.742;18.802;2022-09-17T17:27:00;96730.02;;;11.75;100.00
32492;BME280;20605;49.742;18.802;2022-09-17T17:29:31;96728.03;;;11.71;100.00
32492;BME280;20605;49.742;18.802;2022-09-17T17:31:58;96730.27;;;11.70;100.00
32492;BME280;20605;49.742;18.802;2022-09-17T17:34:26;96728.69;;;11.68;100.00